TAM0725 SBTE-SBJU
Flight info
| Callsign | TAM0725 |
|---|---|
| Flight time | 0h 54m |
| Altitude | 34000 |
| Route | DIKAK UZ7 EGIRI DCT MORVU |
| Aircraft | A319/L-L/2000 |
Departure
| Time | 2026-04-29 01:03 |
|---|---|
| Airport | Senador Petrônio Portela Airport (SBTE) |
Arrival
| Time | 2026-04-29 01:57 |
|---|---|
| Airport | Orlando Bezerra de Menezes Airport (SBJU) |
| Time | Latitude | Longitude | Altitude | Speed | Heading |
|---|---|---|---|---|---|
| 2026-04-29 00:36 | -5.06517 | -42.82077 | 228 ft | 0 kts | 84° |
| 2026-04-29 00:55 | -5.06517 | -42.82078 | 228 ft | 0 kts | 84° |
| 2026-04-29 00:56 | -5.06517 | -42.82081 | 227 ft | 2 kts | 84° |
| 2026-04-29 00:56 | -5.06518 | -42.82094 | 227 ft | 0 kts | 85° |
| 2026-04-29 00:56 | -5.06519 | -42.82101 | 225 ft | 2 kts | 82° |
| 2026-04-29 00:56 | -5.06520 | -42.82111 | 224 ft | 2 kts | 76° |
| 2026-04-29 00:57 | -5.06527 | -42.82124 | 223 ft | 2 kts | 45° |
| 2026-04-29 00:57 | -5.06540 | -42.82132 | 223 ft | 2 kts | 17° |
| 2026-04-29 00:57 | -5.06552 | -42.82134 | 223 ft | 0 kts | 357° |
| 2026-04-29 00:57 | -5.06559 | -42.82133 | 223 ft | 0 kts | 353° |
| 2026-04-29 00:59 | -5.06553 | -42.82134 | 223 ft | 1 kts | 353° |
| 2026-04-29 00:59 | -5.06532 | -42.82137 | 222 ft | 3 kts | 342° |
| 2026-04-29 01:00 | -5.06513 | -42.82155 | 222 ft | 3 kts | 283° |
| 2026-04-29 01:00 | -5.06534 | -42.82185 | 221 ft | 6 kts | 229° |
| 2026-04-29 01:00 | -5.06573 | -42.82227 | 221 ft | 9 kts | 220° |
| 2026-04-29 01:00 | -5.06628 | -42.82271 | 220 ft | 10 kts | 215° |
| 2026-04-29 01:01 | -5.06693 | -42.82302 | 222 ft | 10 kts | 190° |
| 2026-04-29 01:01 | -5.06762 | -42.82303 | 223 ft | 9 kts | 176° |
| 2026-04-29 01:01 | -5.06831 | -42.82296 | 225 ft | 9 kts | 173° |
| 2026-04-29 01:01 | -5.06899 | -42.82289 | 226 ft | 9 kts | 174° |
| 2026-04-29 01:02 | -5.06962 | -42.82304 | 227 ft | 9 kts | 159° |
| 2026-04-29 01:02 | -5.06955 | -42.82280 | 227 ft | 5 kts | 322° |
| 2026-04-29 01:02 | -5.06947 | -42.82283 | 227 ft | 0 kts | 356° |
| 2026-04-29 01:02 | -5.06850 | -42.82290 | 225 ft | 45 kts | 355° |
| 2026-04-29 01:03 | -5.06273 | -42.82346 | 217 ft | 118 kts | 354° |
| 2026-04-29 01:03 | -5.05286 | -42.82454 | 457 ft | 152 kts | 354° |
| 2026-04-29 01:03 | -5.04305 | -42.82567 | 1237 ft | 142 kts | 354° |
| 2026-04-29 01:03 | -5.03323 | -42.82671 | 1856 ft | 147 kts | 355° |
| 2026-04-29 01:04 | -5.02292 | -42.82769 | 2381 ft | 155 kts | 355° |
| 2026-04-29 01:04 | -5.01206 | -42.82866 | 2961 ft | 161 kts | 356° |
| 2026-04-29 01:04 | -5.00046 | -42.82945 | 3413 ft | 177 kts | 2° |
| 2026-04-29 01:04 | -4.98809 | -42.82634 | 3810 ft | 197 kts | 28° |
| 2026-04-29 01:05 | -4.97767 | -42.81642 | 4244 ft | 220 kts | 61° |
| 2026-04-29 01:05 | -4.97456 | -42.80105 | 4732 ft | 243 kts | 98° |
| 2026-04-29 01:05 | -4.98222 | -42.78583 | 5461 ft | 256 kts | 131° |
| 2026-04-29 01:05 | -4.99423 | -42.77290 | 6428 ft | 255 kts | 123° |
| 2026-04-29 01:06 | -5.00006 | -42.75658 | 7334 ft | 252 kts | 89° |
| 2026-04-29 01:06 | -4.99745 | -42.73960 | 8261 ft | 252 kts | 76° |
| 2026-04-29 01:06 | -4.99316 | -42.72242 | 9149 ft | 256 kts | 77° |
| 2026-04-29 01:06 | -4.98956 | -42.70488 | 10033 ft | 260 kts | 81° |
| 2026-04-29 01:07 | -4.98679 | -42.68703 | 10914 ft | 263 kts | 83° |
| 2026-04-29 01:07 | -4.98454 | -42.66872 | 11780 ft | 266 kts | 85° |
| 2026-04-29 01:07 | -4.98254 | -42.65006 | 12619 ft | 270 kts | 85° |
| 2026-04-29 01:07 | -4.98066 | -42.63136 | 13430 ft | 274 kts | 86° |
| 2026-04-29 01:08 | -4.97894 | -42.61224 | 14223 ft | 277 kts | 91° |
| 2026-04-29 01:08 | -4.98198 | -42.59344 | 14947 ft | 278 kts | 113° |
| 2026-04-29 01:08 | -4.99238 | -42.57668 | 15481 ft | 289 kts | 129° |
| 2026-04-29 01:08 | -5.00588 | -42.56094 | 15840 ft | 307 kts | 131° |
| 2026-04-29 01:09 | -5.02054 | -42.54431 | 16165 ft | 325 kts | 131° |
| 2026-04-29 01:09 | -5.03579 | -42.52691 | 16640 ft | 337 kts | 131° |
| 2026-04-29 01:09 | -5.05124 | -42.50915 | 17357 ft | 341 kts | 130° |
| 2026-04-29 01:09 | -5.06676 | -42.49121 | 18083 ft | 344 kts | 130° |
| 2026-04-29 01:10 | -5.08239 | -42.47308 | 18768 ft | 347 kts | 130° |
| 2026-04-29 01:10 | -5.09829 | -42.45460 | 19433 ft | 351 kts | 130° |
| 2026-04-29 01:10 | -5.11440 | -42.43585 | 20083 ft | 354 kts | 130° |
| 2026-04-29 01:10 | -5.13075 | -42.41680 | 20720 ft | 358 kts | 130° |
| 2026-04-29 01:11 | -5.14725 | -42.39756 | 21348 ft | 361 kts | 130° |
| 2026-04-29 01:11 | -5.16394 | -42.37809 | 21967 ft | 364 kts | 130° |
| 2026-04-29 01:11 | -5.18065 | -42.35861 | 22557 ft | 367 kts | 131° |
| 2026-04-29 01:11 | -5.19782 | -42.33856 | 23145 ft | 371 kts | 131° |
| 2026-04-29 01:12 | -5.21472 | -42.31872 | 23702 ft | 374 kts | 131° |
| 2026-04-29 01:12 | -5.23221 | -42.29823 | 24257 ft | 378 kts | 131° |
| 2026-04-29 01:12 | -5.24964 | -42.27786 | 24789 ft | 381 kts | 131° |
| 2026-04-29 01:12 | -5.26725 | -42.25732 | 25301 ft | 384 kts | 131° |
| 2026-04-29 01:13 | -5.28528 | -42.23630 | 25804 ft | 388 kts | 131° |
| 2026-04-29 01:13 | -5.30136 | -42.21422 | 26264 ft | 393 kts | 121° |
| 2026-04-29 01:13 | -5.31252 | -42.18888 | 26717 ft | 398 kts | 109° |
| 2026-04-29 01:13 | -5.31831 | -42.16053 | 27176 ft | 404 kts | 99° |
| 2026-04-29 01:14 | -5.32153 | -42.13181 | 27615 ft | 408 kts | 98° |
| 2026-04-29 01:14 | -5.32453 | -42.10315 | 28020 ft | 411 kts | 99° |
| 2026-04-29 01:14 | -5.32881 | -42.07623 | 28398 ft | 413 kts | 103° |
| 2026-04-29 01:14 | -5.33542 | -42.04767 | 28798 ft | 415 kts | 107° |
| 2026-04-29 01:15 | -5.34413 | -42.01942 | 29186 ft | 418 kts | 111° |
| 2026-04-29 01:15 | -5.35359 | -41.99203 | 29609 ft | 419 kts | 111° |
| 2026-04-29 01:15 | -5.36327 | -41.96444 | 30123 ft | 418 kts | 111° |
| 2026-04-29 01:15 | -5.37302 | -41.93670 | 30633 ft | 417 kts | 111° |
| 2026-04-29 01:16 | -5.38255 | -41.90951 | 31099 ft | 417 kts | 111° |
| 2026-04-29 01:16 | -5.39218 | -41.88200 | 31550 ft | 417 kts | 111° |
| 2026-04-29 01:16 | -5.40193 | -41.85408 | 31994 ft | 417 kts | 111° |
| 2026-04-29 01:16 | -5.41141 | -41.82694 | 32399 ft | 417 kts | 111° |
| 2026-04-29 01:17 | -5.42106 | -41.79929 | 32750 ft | 419 kts | 111° |
| 2026-04-29 01:17 | -5.43080 | -41.77136 | 33071 ft | 421 kts | 111° |
| 2026-04-29 01:17 | -5.44067 | -41.74307 | 33391 ft | 423 kts | 111° |
| 2026-04-29 01:17 | -5.45046 | -41.71497 | 33707 ft | 425 kts | 111° |
| 2026-04-29 01:18 | -5.46038 | -41.68649 | 33907 ft | 427 kts | 111° |
| 2026-04-29 01:18 | -5.49001 | -41.60138 | 33924 ft | 426 kts | 111° |
| 2026-04-29 01:19 | -5.50965 | -41.54497 | 33926 ft | 426 kts | 111° |
| 2026-04-29 01:19 | -5.52926 | -41.48859 | 33926 ft | 426 kts | 111° |
| 2026-04-29 01:20 | -5.54883 | -41.43232 | 33926 ft | 425 kts | 111° |
| 2026-04-29 01:20 | -5.56830 | -41.37633 | 33926 ft | 425 kts | 111° |
| 2026-04-29 01:21 | -5.58802 | -41.31951 | 33926 ft | 425 kts | 111° |
| 2026-04-29 01:21 | -5.60762 | -41.26280 | 33926 ft | 425 kts | 111° |
| 2026-04-29 01:22 | -5.62719 | -41.20636 | 33926 ft | 425 kts | 111° |
| 2026-04-29 01:22 | -5.64659 | -41.15046 | 33926 ft | 425 kts | 111° |
| 2026-04-29 01:23 | -5.66605 | -41.09441 | 33926 ft | 425 kts | 111° |
| 2026-04-29 01:23 | -5.68543 | -41.03858 | 33926 ft | 425 kts | 111° |
| 2026-04-29 01:24 | -5.70495 | -40.98232 | 33924 ft | 428 kts | 111° |
| 2026-04-29 01:24 | -5.72485 | -40.92500 | 33924 ft | 433 kts | 111° |
| 2026-04-29 01:25 | -5.74486 | -40.86735 | 33924 ft | 435 kts | 110° |
| 2026-04-29 01:25 | -5.76471 | -40.81012 | 33925 ft | 436 kts | 109° |
| 2026-04-29 01:26 | -5.78468 | -40.75242 | 33926 ft | 437 kts | 109° |
| 2026-04-29 01:26 | -5.80456 | -40.69494 | 33926 ft | 437 kts | 109° |
| 2026-04-29 01:27 | -5.82461 | -40.63705 | 33926 ft | 437 kts | 109° |
| 2026-04-29 01:27 | -5.84450 | -40.57949 | 33926 ft | 437 kts | 109° |
| 2026-04-29 01:28 | -5.86429 | -40.52211 | 33926 ft | 437 kts | 109° |
| 2026-04-29 01:28 | -5.88414 | -40.46461 | 33926 ft | 437 kts | 109° |
| 2026-04-29 01:29 | -5.89423 | -40.43541 | 33798 ft | 439 kts | 109° |
| 2026-04-29 01:29 | -5.90415 | -40.40665 | 33081 ft | 443 kts | 109° |
| 2026-04-29 01:29 | -5.91431 | -40.37719 | 32417 ft | 445 kts | 110° |
| 2026-04-29 01:29 | -5.92441 | -40.34795 | 31796 ft | 445 kts | 110° |
| 2026-04-29 01:30 | -5.93458 | -40.31841 | 31181 ft | 444 kts | 110° |
| 2026-04-29 01:30 | -5.94469 | -40.28902 | 30571 ft | 444 kts | 110° |
| 2026-04-29 01:30 | -5.95466 | -40.26008 | 29967 ft | 443 kts | 110° |
| 2026-04-29 01:30 | -5.96474 | -40.23086 | 29350 ft | 441 kts | 110° |
| 2026-04-29 01:31 | -5.97461 | -40.20218 | 28748 ft | 440 kts | 110° |
| 2026-04-29 01:31 | -5.98458 | -40.17314 | 28182 ft | 437 kts | 110° |
| 2026-04-29 01:31 | -5.99442 | -40.14453 | 27775 ft | 430 kts | 110° |
| 2026-04-29 01:31 | -6.00408 | -40.11649 | 27362 ft | 424 kts | 110° |
| 2026-04-29 01:32 | -6.01383 | -40.08818 | 26935 ft | 418 kts | 110° |
| 2026-04-29 01:32 | -6.02347 | -40.06021 | 26509 ft | 412 kts | 110° |
| 2026-04-29 01:32 | -6.03308 | -40.03237 | 26082 ft | 407 kts | 110° |
| 2026-04-29 01:32 | -6.04246 | -40.00516 | 25662 ft | 402 kts | 111° |
| 2026-04-29 01:33 | -6.05164 | -39.97857 | 25252 ft | 398 kts | 111° |
| 2026-04-29 01:33 | -6.06057 | -39.95268 | 24850 ft | 394 kts | 111° |
| 2026-04-29 01:33 | -6.06965 | -39.92638 | 24448 ft | 390 kts | 111° |
| 2026-04-29 01:33 | -6.07844 | -39.90091 | 24071 ft | 385 kts | 111° |
| 2026-04-29 01:34 | -6.08726 | -39.87533 | 23689 ft | 382 kts | 111° |
| 2026-04-29 01:34 | -6.09594 | -39.85012 | 23304 ft | 378 kts | 111° |
| 2026-04-29 01:34 | -6.10459 | -39.82504 | 22921 ft | 375 kts | 111° |
| 2026-04-29 01:34 | -6.11322 | -39.80029 | 22539 ft | 372 kts | 111° |
| 2026-04-29 01:35 | -6.12172 | -39.77589 | 22157 ft | 369 kts | 111° |
| 2026-04-29 01:35 | -6.13016 | -39.75154 | 21771 ft | 367 kts | 111° |
| 2026-04-29 01:35 | -6.13838 | -39.72773 | 21388 ft | 364 kts | 111° |
| 2026-04-29 01:35 | -6.14664 | -39.70375 | 21003 ft | 362 kts | 111° |
| 2026-04-29 01:36 | -6.15490 | -39.67974 | 20614 ft | 360 kts | 111° |
| 2026-04-29 01:36 | -6.16294 | -39.65633 | 20236 ft | 358 kts | 111° |
| 2026-04-29 01:36 | -6.17104 | -39.63279 | 19854 ft | 355 kts | 111° |
| 2026-04-29 01:36 | -6.17910 | -39.60933 | 19469 ft | 353 kts | 111° |
| 2026-04-29 01:37 | -6.18711 | -39.58601 | 19084 ft | 352 kts | 111° |
| 2026-04-29 01:37 | -6.19497 | -39.56310 | 18706 ft | 350 kts | 111° |
| 2026-04-29 01:37 | -6.20288 | -39.54005 | 18321 ft | 348 kts | 111° |
| 2026-04-29 01:37 | -6.21077 | -39.51706 | 17938 ft | 346 kts | 111° |
| 2026-04-29 01:38 | -6.21960 | -39.49470 | 17527 ft | 342 kts | 122° |
| 2026-04-29 01:38 | -6.23465 | -39.47686 | 17124 ft | 336 kts | 144° |
| 2026-04-29 01:38 | -6.25525 | -39.46598 | 16715 ft | 331 kts | 165° |
| 2026-04-29 01:38 | -6.27785 | -39.46334 | 16328 ft | 327 kts | 181° |
| 2026-04-29 01:39 | -6.30068 | -39.46429 | 15947 ft | 325 kts | 183° |
| 2026-04-29 01:39 | -6.32327 | -39.46553 | 15563 ft | 324 kts | 183° |
| 2026-04-29 01:39 | -6.34544 | -39.46672 | 15179 ft | 323 kts | 183° |
| 2026-04-29 01:39 | -6.36801 | -39.46787 | 14791 ft | 321 kts | 183° |
| 2026-04-29 01:40 | -6.39023 | -39.46894 | 14410 ft | 320 kts | 183° |
| 2026-04-29 01:40 | -6.41243 | -39.46997 | 14029 ft | 318 kts | 182° |
| 2026-04-29 01:40 | -6.43421 | -39.47097 | 13651 ft | 316 kts | 182° |
| 2026-04-29 01:40 | -6.45614 | -39.47196 | 13271 ft | 314 kts | 182° |
| 2026-04-29 01:41 | -6.47786 | -39.47293 | 12892 ft | 312 kts | 182° |
| 2026-04-29 01:41 | -6.49979 | -39.47391 | 12504 ft | 310 kts | 182° |
| 2026-04-29 01:41 | -6.52137 | -39.47488 | 12124 ft | 308 kts | 182° |
| 2026-04-29 01:41 | -6.54328 | -39.47585 | 11769 ft | 304 kts | 182° |
| 2026-04-29 01:42 | -6.56415 | -39.47678 | 11709 ft | 289 kts | 182° |
| 2026-04-29 01:42 | -6.58397 | -39.47766 | 11654 ft | 275 kts | 182° |
| 2026-04-29 01:42 | -6.60250 | -39.47848 | 11602 ft | 262 kts | 182° |
| 2026-04-29 01:42 | -6.62054 | -39.47928 | 11470 ft | 255 kts | 182° |
| 2026-04-29 01:43 | -6.63858 | -39.48007 | 11154 ft | 254 kts | 182° |
| 2026-04-29 01:43 | -6.65621 | -39.48085 | 10864 ft | 252 kts | 182° |
| 2026-04-29 01:43 | -6.67389 | -39.48164 | 10578 ft | 250 kts | 182° |
| 2026-04-29 01:43 | -6.69140 | -39.48241 | 10297 ft | 248 kts | 182° |
| 2026-04-29 01:44 | -6.70843 | -39.48316 | 10026 ft | 245 kts | 182° |
| 2026-04-29 01:44 | -6.72552 | -39.48392 | 9755 ft | 243 kts | 181° |
| 2026-04-29 01:44 | -6.74264 | -39.48468 | 9483 ft | 242 kts | 181° |
| 2026-04-29 01:44 | -6.75945 | -39.48542 | 9216 ft | 240 kts | 181° |
| 2026-04-29 01:45 | -6.77632 | -39.48617 | 8947 ft | 238 kts | 181° |
| 2026-04-29 01:45 | -6.79292 | -39.48690 | 8682 ft | 237 kts | 181° |
| 2026-04-29 01:45 | -6.80946 | -39.48763 | 8420 ft | 235 kts | 181° |
| 2026-04-29 01:45 | -6.82608 | -39.48837 | 8156 ft | 234 kts | 181° |
| 2026-04-29 01:46 | -6.84215 | -39.48908 | 7901 ft | 233 kts | 181° |
| 2026-04-29 01:46 | -6.85833 | -39.48980 | 7645 ft | 231 kts | 181° |
| 2026-04-29 01:46 | -6.87431 | -39.49051 | 7391 ft | 229 kts | 181° |
| 2026-04-29 01:46 | -6.89026 | -39.49117 | 7132 ft | 226 kts | 179° |
| 2026-04-29 01:47 | -6.90568 | -39.49027 | 6887 ft | 222 kts | 171° |
| 2026-04-29 01:47 | -6.92080 | -39.48696 | 6645 ft | 219 kts | 164° |
| 2026-04-29 01:47 | -6.93521 | -39.48280 | 6399 ft | 216 kts | 163° |
| 2026-04-29 01:47 | -6.94943 | -39.47861 | 6163 ft | 212 kts | 163° |
| 2026-04-29 01:48 | -6.96359 | -39.47445 | 5924 ft | 208 kts | 163° |
| 2026-04-29 01:48 | -6.97742 | -39.47042 | 5692 ft | 205 kts | 163° |
| 2026-04-29 01:48 | -6.99103 | -39.46647 | 5465 ft | 202 kts | 163° |
| 2026-04-29 01:48 | -7.00454 | -39.46256 | 5238 ft | 198 kts | 163° |
| 2026-04-29 01:49 | -7.01759 | -39.45879 | 5066 ft | 192 kts | 163° |
| 2026-04-29 01:49 | -7.03019 | -39.45516 | 5125 ft | 180 kts | 163° |
| 2026-04-29 01:49 | -7.04170 | -39.45188 | 5077 ft | 165 kts | 164° |
| 2026-04-29 01:49 | -7.05253 | -39.44989 | 5033 ft | 151 kts | 172° |
| 2026-04-29 01:50 | -7.06257 | -39.44942 | 4975 ft | 140 kts | 178° |
| 2026-04-29 01:50 | -7.07225 | -39.44951 | 4992 ft | 138 kts | 178° |
| 2026-04-29 01:50 | -7.08187 | -39.44962 | 5000 ft | 138 kts | 178° |
| 2026-04-29 01:50 | -7.09147 | -39.44973 | 5004 ft | 138 kts | 178° |
| 2026-04-29 01:51 | -7.10103 | -39.44984 | 5006 ft | 138 kts | 178° |
| 2026-04-29 01:51 | -7.11069 | -39.44996 | 5007 ft | 138 kts | 178° |
| 2026-04-29 01:51 | -7.12019 | -39.45007 | 5008 ft | 138 kts | 178° |
| 2026-04-29 01:51 | -7.12976 | -39.45018 | 5008 ft | 138 kts | 178° |
| 2026-04-29 01:52 | -7.13944 | -39.45026 | 4993 ft | 137 kts | 174° |
| 2026-04-29 01:52 | -7.14843 | -39.44764 | 4972 ft | 137 kts | 147° |
| 2026-04-29 01:52 | -7.15493 | -39.44063 | 4850 ft | 137 kts | 118° |
| 2026-04-29 01:52 | -7.15864 | -39.43175 | 4755 ft | 137 kts | 112° |
| 2026-04-29 01:53 | -7.16191 | -39.42274 | 4638 ft | 137 kts | 112° |
| 2026-04-29 01:53 | -7.16517 | -39.41376 | 4349 ft | 136 kts | 112° |
| 2026-04-29 01:53 | -7.16841 | -39.40494 | 4126 ft | 135 kts | 112° |
| 2026-04-29 01:53 | -7.17171 | -39.39605 | 3923 ft | 135 kts | 112° |
| 2026-04-29 01:54 | -7.17504 | -39.38712 | 3727 ft | 135 kts | 112° |
| 2026-04-29 01:54 | -7.17836 | -39.37825 | 3535 ft | 134 kts | 112° |
| 2026-04-29 01:54 | -7.18167 | -39.36942 | 3345 ft | 134 kts | 112° |
| 2026-04-29 01:54 | -7.18497 | -39.36064 | 3156 ft | 133 kts | 112° |
| 2026-04-29 01:55 | -7.18825 | -39.35192 | 2969 ft | 133 kts | 112° |
| 2026-04-29 01:55 | -7.19152 | -39.34314 | 2782 ft | 133 kts | 112° |
| 2026-04-29 01:55 | -7.19473 | -39.33449 | 2597 ft | 132 kts | 112° |
| 2026-04-29 01:55 | -7.19797 | -39.32576 | 2407 ft | 132 kts | 112° |
| 2026-04-29 01:56 | -7.20121 | -39.31709 | 2221 ft | 131 kts | 112° |
| 2026-04-29 01:56 | -7.20443 | -39.30852 | 2038 ft | 131 kts | 112° |
| 2026-04-29 01:56 | -7.20766 | -39.29990 | 1858 ft | 131 kts | 112° |
| 2026-04-29 01:56 | -7.21087 | -39.29137 | 1669 ft | 130 kts | 112° |
| 2026-04-29 01:57 | -7.21406 | -39.28281 | 1485 ft | 130 kts | 111° |
| 2026-04-29 01:57 | -7.21733 | -39.27429 | 1354 ft | 128 kts | 111° |
| 2026-04-29 01:57 | -7.22010 | -39.26698 | 1335 ft | 89 kts | 111° |
| 2026-04-29 01:57 | -7.22166 | -39.26277 | 1325 ft | 39 kts | 111° |
| 2026-04-29 01:58 | -7.22224 | -39.26157 | 1321 ft | 8 kts | 59° |
| 2026-04-29 01:58 | -7.22195 | -39.26184 | 1321 ft | 7 kts | 287° |
| 2026-04-29 01:58 | -7.22180 | -39.26232 | 1323 ft | 6 kts | 287° |
| 2026-04-29 01:58 | -7.22167 | -39.26277 | 1325 ft | 6 kts | 287° |
| 2026-04-29 01:59 | -7.22153 | -39.26320 | 1327 ft | 6 kts | 290° |
| 2026-04-29 01:59 | -7.22137 | -39.26363 | 1328 ft | 7 kts | 290° |
| 2026-04-29 01:59 | -7.22117 | -39.26416 | 1329 ft | 8 kts | 290° |
| 2026-04-29 01:59 | -7.22093 | -39.26479 | 1330 ft | 10 kts | 290° |
| 2026-04-29 02:00 | -7.22066 | -39.26552 | 1331 ft | 11 kts | 290° |
| 2026-04-29 02:00 | -7.22037 | -39.26631 | 1333 ft | 12 kts | 291° |
| 2026-04-29 02:00 | -7.22004 | -39.26715 | 1335 ft | 13 kts | 291° |
| 2026-04-29 02:00 | -7.21971 | -39.26804 | 1337 ft | 13 kts | 290° |
| 2026-04-29 02:01 | -7.21936 | -39.26899 | 1339 ft | 14 kts | 290° |
| 2026-04-29 02:01 | -7.21898 | -39.26997 | 1341 ft | 15 kts | 292° |
| 2026-04-29 02:01 | -7.21858 | -39.27094 | 1343 ft | 14 kts | 294° |
| 2026-04-29 02:01 | -7.21782 | -39.27152 | 1344 ft | 13 kts | 333° |
| 2026-04-29 02:02 | -7.21694 | -39.27190 | 1345 ft | 14 kts | 338° |
| 2026-04-29 02:02 | -7.21620 | -39.27246 | 1346 ft | 13 kts | 290° |
| 2026-04-29 02:02 | -7.21569 | -39.27268 | 1346 ft | 5 kts | 2° |
| 2026-04-29 02:02 | -7.21557 | -39.27267 | 1346 ft | 0 kts | 16° |